AirNav   Everest Fuels
 
 1169 users online  

20SD Lutgen Airport
White, South Dakota, USA

GOING TO WHITE?


FAA INFORMATION EFFECTIVE 01 DECEMBER 2022

Location

FAA Identifier: 20SD
Lat/Long: 44-26-56.0000N 096-30-20.8300W
44-26.933333N 096-30.347167W
44.4488889,-96.5057861
(estimated)
Elevation: 1764 ft. / 538 m (estimated)
From city: 6 miles ENE of WHITE, SD
Time zone: UTC -6 (UTC -5 during Daylight Saving Time)
Zip code: 56136

Airport Operations

Airport use: Private use. Permission required prior to landing
Activation date: 12/2017
Control tower: no
ARTCC: MINNEAPOLIS CENTER
FSS: HURON FLIGHT SERVICE STATION
Attendance: 
Wind indicator: yes
Segmented circle: no

Airport Communications

WX AWOS-3PT at BKX (16 nm SW): 119.925 (605-692-1809)
WX AWOS-3 at CNB (20 nm NE): 118.575 (507-223-5293)

Nearby radio navigation aids

VOR radial/distance  VOR name  Freq  Var
MMLr265/29.2MARSHALL VOR/DME111.0005E

Airport Services

Runway Information

Runway 18/36

Dimensions: 1422 x 60 ft. / 433 x 18 m
Surface: turf, in fair condition
RUNWAY 18  RUNWAY 36
Elevation: 1422.0 ft.
Traffic pattern: leftleft

Airport Ownership and Management from official FAA records

Ownership: Privately-owned
Owner: DAN LUTGEN
20237 485TH AVE
WHITE, SD 57276
Phone 605-479-3005
Manager: DAN LUTGEN
20237 485TH AVE
WHITE, SD 57276
Phone 605-479-3005

Airport Operational Statistics

Aircraft based on the field: 1
Single engine airplanes: 1
    

Additional Remarks

FOR CD CTC MINNEAPOLIS ARTCC AT 651-463-5588.

Instrument Procedures

There are no published instrument procedures at 20SD.

Some nearby airports with instrument procedures:

KBKX - Brookings Regional Airport (16 nm SW)
KCNB - Myers Field Airport (20 nm NE)
KMML - Southwest Minnesota Regional Airport - Marshall/Ryan Field (29 nm E)
KPQN - Pipestone Municipal Airport (29 nm S)
KDXX - Lac Qui Parle County Airport (35 nm NE)
 
Loc | Ops | Rwys | IFR | FBO | Links
Com | Nav | Svcs | Stats | Notes

Bismarck Aero Center
AirBoss

 
Aerial photo
No photo
 
Airport distance calculator
Flying to Lutgen Airport? Find the distance to fly.

From to 20SD

Sunrise and sunset
Times for 01-Dec-2022
 Local
(UTC-6)
 Zulu
(UTC)
Morning civil twilight07:1113:11
Sunrise07:4313:43
Sunset16:4722:47
Evening civil twilight17:2023:20

Current date and time
Zulu (UTC)  02-Dec-2022 02:31:52
Local (UTC-6)  01-Dec-2022 20:31:52
 
METAR
KBKX 
17nm SW 
020156Z AUTO 17008KT 10SM CLR 01/M03 A2971 RMK AO2 SLP097 T00061033 FZRANO
KCNB 
20nm NE 
020215Z AUTO 25017G25KT 10SM CLR 04/M03 A2969 RMK AO2 T00411026
KMML 
30nm E 
020156Z AUTO 19007KT 10SM CLR 02/M03 A2974 RMK AO2 SLP089 T00221033 FZRANO
TAF
KATY 
39nm NW 
012212Z 0122/0218 18011KT P6SM SCT200 FM021000 19013G19KT P6SM BKN250 WS020/26035KT FM021300 28012G19KT P6SM BKN230 FM021600 28013G20KT P6SM BKN027 FM021700 31016G25KT P6SM OVC023
NOTAMs
Click for the latest NOTAMs
NOTAMs are issued by the DoD/FAA and will open in a separate window not controlled by AirNav.

 

 
 

Would you like to see your business listed on this page?

 If your business provides an interesting product or service to pilots, flight crews, aircraft, or users of the Lutgen Airport, you should consider listing it here.  To start the listing process, click on the button below
 
Add a business
 

Other Pages about Lutgen Airport

Update a link
 
Copyright © AirNav, LLC. All rights reserved. Privacy Policy  Contact